Time;durP1;ratioP1;P1;durP2;ratioP2;P2;SDS_P1;SDS_P2;PMS_P1;PMS_P2;Temp;Humidity;BMP_temperature;BMP_pressure;BME280_temperature;BME280_humidity;BME280_pressure;Samples;Min_cycle;Max_cycle;Signal;HPM_P1;HPM_P2
2022/11/06 00:00:39;;;;;;;7.15;5.38;;;9.70;48.80;;;;;;5088988;28;20267;-45
2022/11/06 00:03:05;;;;;;;7.57;5.90;;;9.70;48.80;;;;;;5089273;28;20263;-44
2022/11/06 00:08:29;;;;;;;8.65;6.57;;;9.70;48.70;;;;;;5089220;28;20276;-45
2022/11/06 00:10:55;;;;;;;9.90;6.35;;;9.70;48.80;;;;;;5089066;28;20168;-44
2022/11/06 00:13:21;;;;;;;13.83;6.60;;;9.70;48.70;;;;;;5088773;28;20205;-44
2022/11/06 00:15:47;;;;;;;6.60;4.40;;;9.70;48.60;;;;;;5088104;28;20175;-45
2022/11/06 00:18:13;;;;;;;7.33;4.97;;;9.70;48.40;;;;;;5088714;28;20404;-45
2022/11/06 00:20:38;;;;;;;8.00;5.83;;;9.60;48.40;;;;;;5088983;28;20179;-43
2022/11/06 00:23:04;;;;;;;8.17;5.77;;;9.60;48.40;;;;;;5088885;28;20178;-43
2022/11/06 00:25:30;;;;;;;5.47;4.90;;;9.60;48.40;;;;;;5087959;28;20676;-44
2022/11/06 00:27:55;;;;;;;8.23;5.30;;;9.60;48.20;;;;;;5088561;28;20172;-44
2022/11/06 00:30:21;;;;;;;7.83;4.43;;;9.60;48.90;;;;;;5085075;22;20635;-39
2022/11/06 00:32:47;;;;;;;7.33;4.90;;;9.60;48.20;;;;;;5048226;28;20701;-41
2022/11/06 00:35:13;;;;;;;6.07;5.40;;;9.60;48.10;;;;;;5048346;28;20173;-39
2022/11/06 00:37:39;;;;;;;5.23;4.73;;;9.60;48.10;;;;;;5041686;28;20172;-39
2022/11/06 00:40:05;;;;;;;5.60;4.97;;;9.50;48.10;;;;;;5034801;28;20569;-39
2022/11/06 00:42:31;;;;;;;7.63;5.68;;;9.50;48.20;;;;;;5035169;28;20501;-41
2022/11/06 00:44:57;;;;;;;7.97;5.20;;;9.50;48.10;;;;;;5034863;28;20255;-41
2022/11/06 00:47:23;;;;;;;5.13;4.63;;;9.50;48.00;;;;;;5034133;28;20203;-41
2022/11/06 00:49:49;;;;;;;8.30;5.23;;;9.50;48.10;;;;;;5034717;28;20188;-41
2022/11/06 00:52:14;;;;;;;6.73;4.63;;;9.50;48.00;;;;;;5034635;28;20482;-42
2022/11/06 00:54:40;;;;;;;5.30;4.80;;;9.50;48.10;;;;;;5034624;28;20173;-42
2022/11/06 00:57:06;;;;;;;8.87;5.43;;;9.50;48.20;;;;;;5034059;28;20170;-41
2022/11/06 00:59:32;;;;;;;5.77;4.73;;;9.40;48.10;;;;;;5034429;28;20185;-42
2022/11/06 01:01:58;;;;;;;8.90;5.50;;;9.40;48.20;;;;;;5034562;28;20168;-43
2022/11/06 01:04:24;;;;;;;7.83;5.50;;;9.30;48.20;;;;;;5034520;28;20498;-42
2022/11/06 01:06:52;;;;;;;8.65;5.75;;;9.30;48.20;;;;;;5033732;28;20569;-41
2022/11/06 01:09:20;;;;;;;6.97;5.13;;;9.40;48.00;;;;;;5034355;28;20177;-42
2022/11/06 01:11:49;;;;;;;6.63;4.72;;;9.40;47.90;;;;;;5034309;28;20173;-43
2022/11/06 01:14:16;;;;;;;6.90;5.35;;;9.30;47.90;;;;;;5034541;28;20569;-42
2022/11/06 01:16:43;;;;;;;5.75;5.15;;;9.20;48.00;;;;;;5033692;28;20246;-43
2022/11/06 01:19:11;;;;;;;7.78;5.57;;;9.20;48.00;;;;;;5034251;28;20228;-42
2022/11/06 01:21:39;;;;;;;8.00;5.13;;;9.20;48.20;;;;;;5034037;28;20201;-42
2022/11/06 01:24:10;;;;;;;6.03;4.47;;;9.10;48.10;;;;;;5034379;28;20580;-42
2022/11/06 01:26:37;;;;;;;9.00;5.18;;;9.20;48.30;;;;;;5033304;28;20566;-41
2022/11/06 01:29:03;;;;;;;6.20;4.85;;;9.10;48.40;;;;;;5034073;28;20181;-42
2022/11/06 01:31:31;;;;;;;8.20;5.43;;;9.10;48.30;;;;;;5033762;28;20283;-42
2022/11/06 01:33:59;;;;;;;6.10;5.05;;;9.10;48.40;;;;;;5033903;28;20546;-42
2022/11/06 01:36:26;;;;;;;6.03;4.97;;;9.10;48.40;;;;;;5033537;28;20607;-42
2022/11/06 01:38:54;;;;;;;7.72;5.88;;;9.10;48.60;;;;;;5033849;28;20248;-41
2022/11/06 01:41:48;;;;;;;6.03;4.85;;;9.00;48.70;;;;;;5033693;28;20282;-42
2022/11/06 01:44:32;;;;;;;7.82;5.20;;;9.00;48.80;;;;;;5033388;28;20216;-42
2022/11/06 01:47:02;;;;;;;9.30;5.00;;;9.00;48.80;;;;;;5033102;28;20207;-42
2022/11/06 01:49:35;;;;;;;5.93;5.00;;;9.00;48.80;;;;;;5032603;28;20168;-42
2022/11/06 01:52:06;;;;;;;6.85;5.55;;;8.90;48.80;;;;;;5033542;28;20219;-42
2022/11/06 01:54:35;;;;;;;7.10;4.97;;;8.90;48.80;;;;;;5033558;28;20164;-42
2022/11/06 01:57:02;;;;;;;7.63;6.55;;;8.90;48.90;;;;;;5032765;28;20628;-42
2022/11/06 01:59:32;;;;;;;5.85;4.60;;;8.90;48.80;;;;;;5033351;28;20228;-42
2022/11/06 02:01:58;;;;;;;6.68;5.68;;;8.90;48.70;;;;;;5033380;28;20218;-42
2022/11/06 02:04:27;;;;;;;6.13;5.20;;;8.90;48.90;;;;;;5033407;28;20255;-43
2022/11/06 02:06:53;;;;;;;8.02;5.03;;;8.90;48.90;;;;;;5032676;28;20499;-42
2022/11/06 02:09:19;;;;;;;8.88;5.30;;;8.90;49.00;;;;;;5033085;28;20265;-41
2022/11/06 02:11:51;;;;;;;6.85;4.80;;;8.90;49.10;;;;;;5033229;28;20165;-41
2022/11/06 02:14:20;;;;;;;6.72;5.07;;;8.90;48.90;;;;;;5033202;28;20521;-41
2022/11/06 02:16:54;;;;;;;8.63;5.72;;;8.80;48.90;;;;;;5032486;28;20183;-42
2022/11/06 02:19:44;;;;;;;6.28;4.97;;;8.90;48.70;;;;;;5033222;28;20178;-43
2022/11/06 02:22:17;;;;;;;7.05;5.40;;;8.90;48.70;;;;;;5033231;28;20644;-42
2022/11/06 02:25:09;;;;;;;5.70;4.70;;;8.80;48.70;;;;;;5033186;28;20178;-42
2022/11/06 02:27:35;;;;;;;7.97;5.35;;;8.80;48.60;;;;;;5032307;28;20199;-42
2022/11/06 02:30:12;;;;;;;8.40;5.40;;;8.70;48.70;;;;;;5032659;28;20612;-42
2022/11/06 02:32:44;;;;;;;5.38;4.25;;;8.70;48.70;;;;;;5032871;28;20179;-42
2022/11/06 02:35:25;;;;;;;6.70;5.40;;;8.70;48.70;;;;;;5032832;28;20155;-42
2022/11/06 02:37:57;;;;;;;7.50;5.45;;;8.70;48.60;;;;;;5032307;28;20553;-42
2022/11/06 02:40:26;;;;;;;6.65;4.85;;;8.60;48.80;;;;;;5032573;28;20273;-43
2022/11/06 02:42:54;;;;;;;6.20;5.43;;;8.60;48.90;;;;;;5032594;28;20170;-42
2022/11/06 02:45:22;;;;;;;7.38;5.72;;;8.60;49.00;;;;;;5032444;28;20182;-43
2022/11/06 02:47:53;;;;;;;11.82;6.70;;;8.50;49.10;;;;;;5032057;28;20164;-42
2022/11/06 02:50:30;;;;;;;5.05;4.40;;;8.60;49.10;;;;;;5032492;28;20197;-41
2022/11/06 02:53:07;;;;;;;9.50;5.82;;;8.60;49.00;;;;;;5032542;28;20182;-43
2022/11/06 02:55:35;;;;;;;7.10;5.30;;;8.60;48.80;;;;;;5031866;28;20161;-43
2022/11/06 02:58:27;;;;;;;7.45;5.30;;;8.50;48.60;;;;;;5032501;28;20562;-41
2022/11/06 03:00:59;;;;;;;10.10;5.60;;;8.50;48.80;;;;;;5032092;28;20206;-42
2022/11/06 03:03:30;;;;;;;9.48;5.75;;;8.50;48.90;;;;;;5032378;28;20630;-42
2022/11/06 03:06:25;;;;;;;7.63;5.07;;;8.50;48.90;;;;;;5031927;28;20259;-42
2022/11/06 03:09:01;;;;;;;6.88;5.63;;;8.50;48.80;;;;;;5030844;28;20235;-42
2022/11/06 03:11:31;;;;;;;6.38;5.65;;;8.50;48.60;;;;;;5032146;28;20276;-42
2022/11/06 03:14:07;;;;;;;5.20;4.70;;;8.50;48.60;;;;;;5032107;28;20194;-42
2022/11/06 03:16:49;;;;;;;6.22;4.97;;;8.40;48.60;;;;;;5031545;28;20565;-43
2022/11/06 03:19:28;;;;;;;9.43;5.03;;;8.40;48.60;;;;;;5032060;28;20158;-42
2022/11/06 03:22:11;;;;;;;7.35;5.00;;;8.40;48.80;;;;;;5032211;28;20183;-43
2022/11/06 03:24:50;;;;;;;8.05;5.75;;;8.40;48.80;;;;;;5032067;28;20319;-42
2022/11/06 03:27:21;;;;;;;10.30;6.57;;;8.40;48.80;;;;;;5031663;28;20230;-42
2022/11/06 03:30:00;;;;;;;7.57;5.20;;;8.40;48.90;;;;;;5031820;28;20603;-42
2022/11/06 03:32:41;;;;;;;8.65;6.47;;;8.40;48.80;;;;;;5032018;28;20165;-41
2022/11/06 03:35:18;;;;;;;6.97;5.00;;;8.40;48.60;;;;;;5032012;28;20181;-42
2022/11/06 03:38:02;;;;;;;5.47;4.55;;;8.40;48.50;;;;;;5031331;28;20184;-42
2022/11/06 03:40:33;;;;;;;6.35;5.50;;;8.40;48.60;;;;;;5031826;28;20664;-41
2022/11/06 03:43:02;;;;;;;7.45;4.75;;;8.40;48.60;;;;;;5032240;28;20232;-41
2022/11/06 03:45:31;;;;;;;7.63;5.60;;;8.40;48.50;;;;;;5031897;28;20174;-42
2022/11/06 03:48:06;;;;;;;5.78;5.10;;;8.40;48.30;;;;;;5031840;28;20175;-42
2022/11/06 03:50:39;;;;;;;6.60;5.80;;;8.30;48.30;;;;;;5031825;28;20335;-42
2022/11/06 03:53:22;;;;;;;7.30;4.80;;;8.30;48.20;;;;;;5031843;28;20169;-42
2022/11/06 03:55:53;;;;;;;6.32;5.20;;;8.30;48.10;;;;;;5031163;28;20657;-43
2022/11/06 03:58:27;;;;;;;6.50;5.43;;;8.30;48.20;;;;;;5031797;28;20715;-41
2022/11/06 04:00:54;;;;;;;5.38;4.88;;;8.30;48.30;;;;;;5031734;28;20208;-43
2022/11/06 04:03:31;;;;;;;8.05;5.18;;;8.30;48.30;;;;;;5031754;28;20183;-42
2022/11/06 04:06:11;;;;;;;4.95;4.15;;;8.30;48.40;;;;;;5031302;28;20269;-42
2022/11/06 04:14:14;;;;;;;7.38;5.55;;;8.20;48.20;;;;;;5035217;28;20759;-42
2022/11/06 04:16:49;;;;;;;6.18;5.03;;;8.30;48.20;;;;;;5034779;28;20895;-41
2022/11/06 04:19:17;;;;;;;6.22;5.03;;;8.20;48.10;;;;;;5035278;28;20251;-42
2022/11/06 04:22:17;;;;;;;4.55;3.67;;;8.20;48.10;;;;;;5035266;28;20257;-42
2022/11/06 04:28:05;;;;;;;8.77;5.28;;;8.10;48.10;;;;;;5034649;28;20526;-42
2022/11/06 04:30:55;;;;;;;7.32;4.45;;;8.10;48.10;;;;;;5034947;28;20217;-42
2022/11/06 04:33:56;;;;;;;7.53;5.25;;;8.10;48.00;;;;;;5035084;28;20163;-41
2022/11/06 04:36:49;;;;;;;6.47;4.70;;;8.10;48.00;;;;;;5028823;28;20526;-41
2022/11/06 04:39:27;;;;;;;6.55;4.82;;;8.10;47.90;;;;;;5034848;28;20185;-42
2022/11/06 04:42:10;;;;;;;6.45;4.60;;;8.10;47.80;;;;;;5034944;28;20528;-42
2022/11/06 04:44:51;;;;;;;5.90;5.10;;;8.10;47.70;;;;;;5034919;28;20643;-42
2022/11/06 04:47:23;;;;;;;5.93;4.68;;;8.10;47.70;;;;;;5034219;28;20193;-42
2022/11/06 04:49:52;;;;;;;5.63;4.22;;;8.00;47.60;;;;;;5034614;28;20735;-42
2022/11/06 04:52:22;;;;;;;6.57;4.70;;;8.00;47.60;;;;;;5034688;28;20178;-42
2022/11/06 04:54:49;;;;;;;5.97;4.72;;;8.00;47.60;;;;;;5034707;28;20166;-42
2022/11/06 04:57:14;;;;;;;5.20;4.15;;;8.00;47.70;;;;;;5034088;28;20170;-42
2022/11/06 04:59:40;;;;;;;7.63;4.50;;;7.90;47.60;;;;;;5034756;28;20305;-42
2022/11/06 05:02:06;;;;;;;8.50;5.00;;;7.90;47.50;;;;;;5034595;28;20240;-41
2022/11/06 05:04:32;;;;;;;8.43;5.68;;;7.90;47.30;;;;;;5034472;28;20181;-41
2022/11/06 05:06:58;;;;;;;6.60;4.87;;;7.90;47.60;;;;;;5033968;28;20210;-42
2022/11/06 05:09:24;;;;;;;5.50;4.57;;;7.80;47.40;;;;;;5034522;28;20404;-42
2022/11/06 05:11:50;;;;;;;5.93;4.80;;;7.80;47.40;;;;;;5034611;28;20931;-41
2022/11/06 05:14:16;;;;;;;7.95;4.75;;;7.80;47.40;;;;;;5034264;28;20926;-42
2022/11/06 05:16:42;;;;;;;9.20;5.57;;;7.80;47.60;;;;;;5033686;28;20183;-42
2022/11/06 05:19:07;;;;;;;4.77;3.93;;;7.80;47.60;;;;;;5034251;28;20409;-42
2022/11/06 05:24:18;;;;;;;5.55;4.03;;;7.70;47.50;;;;;;5034078;28;20258;-42
2022/11/06 05:26:43;;;;;;;9.90;6.03;;;7.80;47.50;;;;;;5033424;28;20272;-41
2022/11/06 05:29:11;;;;;;;6.13;4.27;;;7.70;47.50;;;;;;5034100;28;20580;-41
2022/11/06 05:31:36;;;;;;;7.03;5.25;;;7.70;47.60;;;;;;5033687;28;20194;-41
2022/11/06 05:34:02;;;;;;;8.37;5.60;;;7.70;47.60;;;;;;5033955;28;20239;-42
2022/11/06 05:36:28;;;;;;;7.88;4.68;;;7.70;47.50;;;;;;5033259;28;20664;-42
2022/11/06 05:38:54;;;;;;;5.53;4.40;;;7.60;47.20;;;;;;5033809;28;20174;-42
2022/11/06 05:41:20;;;;;;;6.13;4.40;;;7.60;47.30;;;;;;5033720;28;20504;-41
2022/11/06 05:43:45;;;;;;;7.70;4.77;;;7.60;47.10;;;;;;5033773;28;20873;-42
2022/11/06 05:46:11;;;;;;;6.30;4.90;;;7.60;47.10;;;;;;5032974;28;20202;-41
2022/11/06 05:48:37;;;;;;;13.90;5.83;;;7.50;46.90;;;;;;5033639;28;20170;-41
2022/11/06 05:51:05;;;;;;;8.50;5.30;;;7.50;46.70;;;;;;5033535;28;20189;-41
2022/11/06 05:53:33;;;;;;;5.97;4.40;;;7.40;46.90;;;;;;5033519;28;20166;-42
2022/11/06 05:55:59;;;;;;;4.95;4.05;;;7.40;47.00;;;;;;5033000;28;20261;-42
2022/11/06 05:58:26;;;;;;;8.00;4.60;;;7.40;46.90;;;;;;5033531;28;20257;-42
2022/11/06 06:00:53;;;;;;;6.95;5.00;;;7.40;46.80;;;;;;5033313;28;20194;-42
2022/11/06 06:03:20;;;;;;;5.97;5.38;;;7.40;46.60;;;;;;5033372;28;20178;-42
2022/11/06 06:05:46;;;;;;;5.70;4.80;;;7.40;46.50;;;;;;5032888;28;20202;-41
2022/11/06 06:08:12;;;;;;;6.55;4.97;;;7.40;46.60;;;;;;5033393;28;20174;-41
2022/11/06 06:10:42;;;;;;;6.33;3.90;;;7.30;46.70;;;;;;5033268;28;20212;-41
2022/11/06 06:13:07;;;;;;;6.00;4.70;;;7.30;46.50;;;;;;5033152;28;20896;-41
2022/11/06 06:15:33;;;;;;;6.63;4.53;;;7.30;46.70;;;;;;5032795;28;20228;-43
2022/11/06 06:17:59;;;;;;;9.73;5.53;;;7.30;46.70;;;;;;5033170;28;20167;-41
2022/11/06 06:20:25;;;;;;;7.87;5.90;;;7.30;46.50;;;;;;5032939;28;20226;-41
2022/11/06 06:22:55;;;;;;;6.00;4.60;;;7.20;46.50;;;;;;5033126;28;20388;-41
2022/11/06 06:25:21;;;;;;;6.20;4.97;;;7.20;46.70;;;;;;5033037;28;20178;-41
2022/11/06 06:27:47;;;;;;;6.10;4.20;;;7.20;46.60;;;;;;5032237;28;20709;-41
2022/11/06 06:30:13;;;;;;;5.60;4.50;;;7.20;46.60;;;;;;5032870;28;20241;-41
2022/11/06 06:32:39;;;;;;;9.85;5.00;;;7.20;46.50;;;;;;5032817;28;20166;-40
2022/11/06 06:35:05;;;;;;;6.30;5.10;;;7.10;46.50;;;;;;5032292;28;20174;-41
2022/11/06 06:37:30;;;;;;;8.32;5.15;;;7.10;46.50;;;;;;5032169;28;20170;-41
2022/11/06 06:39:56;;;;;;;6.50;4.63;;;7.10;46.60;;;;;;5032639;28;20194;-41
2022/11/06 06:42:22;;;;;;;5.70;4.27;;;7.10;46.40;;;;;;5032708;28;20209;-42
2022/11/06 06:44:48;;;;;;;11.03;5.70;;;7.40;46.80;;;;;;5032606;28;20171;-41
2022/11/06 06:47:17;;;;;;;6.70;5.93;;;7.90;46.60;;;;;;5031943;28;20198;-42
2022/11/06 06:49:44;;;;;;;9.15;4.53;;;8.60;45.70;;;;;;5032408;28;20192;-41
2022/11/06 06:52:10;;;;;;;8.82;4.82;;;9.10;45.30;;;;;;5032557;28;20705;-41
2022/11/06 06:54:36;;;;;;;6.30;4.80;;;9.60;44.30;;;;;;5032481;28;20184;-42
2022/11/06 06:57:02;;;;;;;6.80;5.03;;;9.70;42.80;;;;;;5031729;28;20561;-41
2022/11/06 06:59:28;;;;;;;7.85;5.38;;;9.60;42.50;;;;;;5032294;28;20175;-42
2022/11/06 07:01:54;;;;;;;10.23;5.20;;;9.30;42.20;;;;;;5032357;28;20189;-43
2022/11/06 07:04:20;;;;;;;5.60;5.10;;;9.10;42.90;;;;;;5032238;28;20815;-41
2022/11/06 07:06:46;;;;;;;7.23;5.83;;;8.80;43.30;;;;;;5031707;28;20266;-42
2022/11/06 07:09:12;;;;;;;8.30;5.97;;;8.70;43.80;;;;;;5032294;28;20193;-41
2022/11/06 07:11:38;;;;;;;7.43;5.60;;;8.50;44.10;;;;;;5032062;28;20418;-42
2022/11/06 07:14:03;;;;;;;8.20;5.38;;;8.30;44.70;;;;;;5032202;28;20166;-41
2022/11/06 07:16:31;;;;;;;6.50;5.60;;;8.30;45.20;;;;;;5031625;28;20512;-42
2022/11/06 07:18:57;;;;;;;8.20;5.93;;;8.20;45.50;;;;;;5032094;28;20177;-41
2022/11/06 07:21:23;;;;;;;8.48;6.28;;;8.20;45.70;;;;;;5032126;28;20201;-43
2022/11/06 07:23:49;;;;;;;9.50;7.32;;;8.30;46.00;;;;;;5032070;28;20177;-43
2022/11/06 07:26:16;;;;;;;8.90;6.40;;;8.30;46.60;;;;;;5031436;28;20212;-43
2022/11/06 07:28:41;;;;;;;11.57;7.78;;;8.40;46.60;;;;;;5032288;28;20408;-42
2022/11/06 07:31:09;;;;;;;16.40;6.70;;;8.50;47.80;;;;;;5031881;28;20210;-44
2022/11/06 07:33:35;;;;;;;11.73;7.18;;;8.60;47.20;;;;;;5032236;28;20877;-43
2022/11/06 07:36:05;;;;;;;8.43;6.87;;;8.70;47.10;;;;;;5031546;28;20176;-43
2022/11/06 07:38:33;;;;;;;12.00;6.78;;;8.70;47.10;;;;;;5031902;28;20499;-42
2022/11/06 07:41:09;;;;;;;11.55;7.88;;;8.70;47.00;;;;;;5031853;28;20280;-42
2022/11/06 07:43:35;;;;;;;11.30;7.95;;;8.80;47.30;;;;;;5031870;28;20206;-41
2022/11/06 07:46:03;;;;;;;10.50;8.65;;;8.80;47.60;;;;;;5031209;28;20202;-42
2022/11/06 07:48:30;;;;;;;13.00;9.32;;;8.90;47.80;;;;;;5034397;28;20200;-42
2022/11/06 07:50:56;;;;;;;11.32;9.48;;;8.90;48.20;;;;;;5035831;28;20532;-42
2022/11/06 07:53:23;;;;;;;11.18;8.32;;;9.00;48.20;;;;;;5036030;28;20269;-42
2022/11/06 07:55:50;;;;;;;11.40;7.95;;;9.10;48.20;;;;;;5035264;28;20175;-42
2022/11/06 07:58:16;;;;;;;12.70;8.15;;;9.10;48.10;;;;;;5035811;28;20630;-41
2022/11/06 08:00:53;;;;;;;9.95;7.60;;;9.20;48.20;;;;;;5035896;28;20555;-41
2022/11/06 08:03:20;;;;;;;9.43;7.10;;;9.30;48.40;;;;;;5035574;28;20173;-42
2022/11/06 08:05:46;;;;;;;10.80;8.75;;;9.40;48.80;;;;;;5035077;28;20239;-40
2022/11/06 08:08:12;;;;;;;12.30;8.82;;;9.60;48.60;;;;;;5035616;28;20187;-41
2022/11/06 08:10:39;;;;;;;15.45;10.82;;;9.90;49.10;;;;;;5035466;28;20754;-43
2022/11/06 08:13:13;;;;;;;12.15;8.40;;;10.50;49.20;;;;;;5035479;28;20177;-42
2022/11/06 08:15:39;;;;;;;10.00;8.98;;;10.90;48.90;;;;;;5034820;28;20629;-42
2022/11/06 08:18:07;;;;;;;11.93;9.45;;;11.30;48.70;;;;;;5035847;28;20177;-42
2022/11/06 08:20:37;;;;;;;9.52;7.10;;;11.50;47.80;;;;;;5035252;28;20272;-42
2022/11/06 08:23:05;;;;;;;11.60;9.23;;;11.90;47.40;;;;;;5048778;22;20222;-46
2022/11/06 08:25:31;;;;;;;14.35;8.43;;;12.20;46.70;;;;;;5034560;28;20178;-45
2022/11/06 08:27:58;;;;;;;12.70;9.00;;;12.30;46.40;;;;;;5034962;28;20163;-45
2022/11/06 08:30:25;;;;;;;12.90;7.88;;;12.50;46.50;;;;;;5035095;28;20902;-44
2022/11/06 08:32:51;;;;;;;13.13;6.93;;;12.90;46.00;;;;;;5035082;28;20247;-45
2022/11/06 08:35:20;;;;;;;11.02;8.50;;;13.30;45.70;;;;;;5035380;28;20170;-46
2022/11/06 08:37:46;;;;;;;14.05;8.32;;;13.60;43.70;;;;;;5034485;28;20182;-44
2022/11/06 08:40:12;;;;;;;10.00;7.07;;;13.90;44.10;;;;;;5034941;28;20176;-45
2022/11/06 08:42:38;;;;;;;10.57;7.53;;;14.50;41.90;;;;;;5035116;28;20567;-45
2022/11/06 08:45:05;;;;;;;9.27;7.50;;;15.10;40.10;;;;;;5035141;28;20423;-45
2022/11/06 08:47:31;;;;;;;11.73;9.05;;;15.60;41.10;;;;;;5034253;28;20251;-46
2022/11/06 08:49:57;;;;;;;12.40;8.33;;;16.20;40.10;;;;;;5034881;28;20170;-44
2022/11/06 08:52:22;;;;;;;11.73;8.63;;;16.80;39.10;;;;;;5035819;28;20316;-46
2022/11/06 08:54:48;;;;;;;10.47;7.47;;;17.10;38.20;;;;;;5037731;28;20173;-46
2022/11/06 08:57:14;;;;;;;10.83;8.10;;;17.20;37.00;;;;;;5036969;28;20224;-45
2022/11/06 08:59:42;;;;;;;7.57;6.77;;;17.00;37.20;;;;;;5037257;28;20249;-47
2022/11/06 09:02:12;;;;;;;10.65;8.25;;;16.80;37.20;;;;;;5037133;28;20280;-46
2022/11/06 09:04:38;;;;;;;8.82;6.93;;;16.70;39.30;;;;;;5037264;28;20565;-47
2022/11/06 09:07:04;;;;;;;9.40;7.47;;;16.60;38.90;;;;;;5034369;28;20739;-46
2022/11/06 09:09:32;;;;;;;13.80;8.37;;;16.50;38.70;;;;;;5034102;28;20178;-45
2022/11/06 09:11:59;;;;;;;11.18;7.50;;;16.30;38.20;;;;;;5034531;28;20288;-45
2022/11/06 09:14:25;;;;;;;11.02;7.30;;;16.10;38.20;;;;;;5034529;28;20228;-46
2022/11/06 09:16:51;;;;;;;11.43;8.38;;;15.90;39.50;;;;;;5033958;28;20534;-45
2022/11/06 09:19:17;;;;;;;10.60;7.67;;;15.70;38.90;;;;;;5034165;28;20640;-44
2022/11/06 09:21:43;;;;;;;10.57;8.30;;;15.60;39.90;;;;;;5033945;28;20451;-46
2022/11/06 09:24:08;;;;;;;10.40;7.30;;;15.50;40.50;;;;;;5034452;28;20443;-45
2022/11/06 09:26:34;;;;;;;12.03;8.47;;;15.40;40.90;;;;;;5033493;28;20232;-45
2022/11/06 09:29:00;;;;;;;10.07;7.77;;;15.40;40.20;;;;;;5034351;28;20174;-45
2022/11/06 09:31:25;;;;;;;12.30;8.73;;;15.40;40.50;;;;;;5034201;28;20170;-46
2022/11/06 09:33:51;;;;;;;12.90;7.60;;;15.40;40.50;;;;;;5034038;28;20253;-44
2022/11/06 09:36:17;;;;;;;10.87;7.40;;;15.30;41.00;;;;;;5033403;28;20590;-44
2022/11/06 09:38:42;;;;;;;13.77;8.73;;;15.40;41.20;;;;;;5034135;28;20265;-45
2022/11/06 09:41:20;;;;;;;9.40;7.50;;;15.40;41.60;;;;;;5034076;28;20178;-45
2022/11/06 09:44:03;;;;;;;11.65;8.02;;;15.50;41.60;;;;;;5033804;28;20168;-45
2022/11/06 09:46:34;;;;;;;9.05;6.72;;;15.60;41.10;;;;;;5033098;28;20230;-45
2022/11/06 09:49:16;;;;;;;9.60;7.57;;;15.60;41.40;;;;;;5033619;28;20217;-46
2022/11/06 09:52:21;;;;;;;12.45;8.13;;;15.70;41.20;;;;;;5033882;28;20221;-45
2022/11/06 09:54:55;;;;;;;11.68;7.20;;;16.10;41.20;;;;;;5033705;28;20178;-45
2022/11/06 09:57:32;;;;;;;11.00;6.80;;;16.70;39.20;;;;;;5032953;28;20545;-45
2022/11/06 10:00:01;;;;;;;9.90;7.97;;;17.30;39.10;;;;;;5033480;28;20193;-46
2022/11/06 10:02:39;;;;;;;9.65;6.90;;;17.90;37.60;;;;;;5033455;28;20198;-45
2022/11/06 10:05:22;;;;;;;11.77;6.55;;;18.10;37.40;;;;;;5033399;28;20186;-45
2022/11/06 10:07:52;;;;;;;8.95;7.07;;;18.10;37.30;;;;;;5032733;28;20194;-45
2022/11/06 10:10:23;;;;;;;12.80;6.20;;;18.10;37.50;;;;;;5033162;28;20217;-45
2022/11/06 10:13:16;;;;;;;8.98;7.22;;;18.20;37.20;;;;;;5033235;28;20186;-46
2022/11/06 10:16:15;;;;;;;11.68;8.30;;;18.10;36.70;;;;;;5032877;28;20211;-46
2022/11/06 10:19:24;;;;;;;7.90;6.35;;;18.10;36.40;;;;;;5031822;28;20644;-46
2022/11/06 10:21:52;;;;;;;11.98;7.20;;;18.00;36.50;;;;;;5033129;28;20209;-46
2022/11/06 10:24:41;;;;;;;6.63;5.30;;;18.10;35.30;;;;;;5032893;28;20177;-46
2022/11/06 10:27:18;;;;;;;8.40;6.47;;;18.40;35.80;;;;;;5032298;28;20210;-46
2022/11/06 10:29:51;;;;;;;7.45;6.13;;;18.40;35.20;;;;;;5032769;28;20178;-46
2022/11/06 10:32:26;;;;;;;8.00;5.40;;;18.20;35.20;;;;;;5032739;28;20182;-46
2022/11/06 10:34:58;;;;;;;8.35;6.05;;;18.10;35.90;;;;;;5032741;28;20640;-45
2022/11/06 10:37:33;;;;;;;8.45;5.57;;;18.20;36.40;;;;;;5032211;28;20166;-46
2022/11/06 10:40:04;;;;;;;8.23;5.50;;;18.10;35.90;;;;;;5032737;28;20622;-46
2022/11/06 10:42:37;;;;;;;6.28;4.88;;;18.10;36.00;;;;;;5032846;28;20228;-45
2022/11/06 10:45:09;;;;;;;5.43;4.57;;;18.20;34.70;;;;;;5032522;28;20178;-45
2022/11/06 10:47:42;;;;;;;6.75;5.90;;;18.30;35.30;;;;;;5031944;28;20190;-46
2022/11/06 10:50:13;;;;;;;5.70;4.03;;;18.20;35.20;;;;;;5032928;28;20562;-46
2022/11/06 10:52:51;;;;;;;11.85;6.70;;;18.30;34.40;;;;;;5032838;28;20550;-46
2022/11/06 10:55:45;;;;;;;7.50;5.72;;;18.50;34.20;;;;;;5032593;28;20201;-45
2022/11/06 10:58:16;;;;;;;6.82;5.15;;;18.40;34.60;;;;;;5032340;28;20676;-46
2022/11/06 11:00:41;;;;;;;7.72;6.13;;;18.30;34.50;;;;;;5032473;28;20177;-46
2022/11/06 11:03:28;;;;;;;6.40;5.73;;;18.10;35.40;;;;;;5032528;28;20596;-46
2022/11/06 11:05:54;;;;;;;6.05;4.97;;;18.00;35.30;;;;;;5031654;28;20416;-46
2022/11/06 11:08:41;;;;;;;5.47;4.60;;;18.00;35.40;;;;;;5032563;28;20267;-46
2022/11/06 11:11:12;;;;;;;11.32;4.20;;;18.00;33.90;;;;;;5032579;28;20231;-45
2022/11/06 11:13:42;;;;;;;5.22;4.25;;;17.90;35.00;;;;;;5032292;28;20689;-46
2022/11/06 11:16:17;;;;;;;6.85;4.28;;;17.90;35.50;;;;;;5031649;28;20185;-45
2022/11/06 11:18:45;;;;;;;7.80;4.40;;;18.00;36.00;;;;;;5032113;28;20194;-46
2022/11/06 11:21:15;;;;;;;3.67;3.38;;;18.10;34.40;;;;;;5031937;28;20170;-46
2022/11/06 11:23:41;;;;;;;3.63;2.95;;;18.10;32.70;;;;;;5032019;28;20234;-45
2022/11/06 11:26:24;;;;;;;3.13;2.80;;;18.00;31.50;;;;;;5031458;28;20205;-45
2022/11/06 11:28:58;;;;;;;4.47;3.42;;;18.00;31.40;;;;;;5032522;28;20184;-46
2022/11/06 11:31:30;;;;;;;3.20;2.65;;;17.90;30.70;;;;;;5032290;28;20165;-46
2022/11/06 11:33:59;;;;;;;7.43;5.70;;;17.90;33.20;;;;;;5032034;28;20261;-47
2022/11/06 11:36:25;;;;;;;4.80;2.60;;;18.10;32.20;;;;;;5031362;28;20196;-46
2022/11/06 11:38:52;;;;;;;3.17;2.75;;;18.30;31.70;;;;;;5032220;28;20173;-45
2022/11/06 11:41:23;;;;;;;2.88;2.58;;;18.40;29.70;;;;;;5033317;28;20178;-45
2022/11/06 11:44:16;;;;;;;3.13;2.83;;;18.60;30.50;;;;;;5032715;28;20188;-46
2022/11/06 11:46:51;;;;;;;4.00;2.90;;;19.30;30.40;;;;;;5030281;28;20679;-45
2022/11/06 11:49:33;;;;;;;3.50;2.85;;;19.80;31.30;;;;;;5032506;28;20173;-46
2022/11/06 11:52:10;;;;;;;3.78;2.90;;;20.10;28.30;;;;;;5031939;28;20732;-46
2022/11/06 11:54:36;;;;;;;3.17;2.30;;;20.30;30.20;;;;;;5031919;28;20526;-46
2022/11/06 11:57:16;;;;;;;4.28;2.67;;;20.80;26.90;;;;;;5031290;28;20889;-46
2022/11/06 11:59:56;;;;;;;3.92;3.00;;;20.80;27.20;;;;;;5031950;28;20174;-46
2022/11/06 12:02:30;;;;;;;4.00;2.80;;;20.70;29.00;;;;;;5031782;28;20209;-46
2022/11/06 12:05:20;;;;;;;5.05;3.92;;;20.50;29.20;;;;;;5032083;28;20212;-46
2022/11/06 12:07:57;;;;;;;4.28;3.60;;;20.40;28.60;;;;;;5031156;28;20193;-45
2022/11/06 12:10:36;;;;;;;5.40;3.70;;;20.30;28.80;;;;;;5032049;28;20219;-46
2022/11/06 12:13:15;;;;;;;5.90;3.75;;;20.00;28.50;;;;;;5031898;28;20201;-46
2022/11/06 12:16:01;;;;;;;3.55;3.20;;;19.70;29.20;;;;;;5031385;28;20238;-46
2022/11/06 12:18:33;;;;;;;4.07;2.67;;;19.70;27.00;;;;;;5031737;28;20216;-45
2022/11/06 12:21:05;;;;;;;9.43;8.18;;;19.50;26.50;;;;;;5031640;28;20170;-47
2022/11/06 12:23:46;;;;;;;4.03;2.67;;;19.30;26.20;;;;;;5031499;28;20263;-45
2022/11/06 12:26:17;;;;;;;3.95;2.60;;;19.50;27.50;;;;;;5031082;28;20280;-46
2022/11/06 12:28:46;;;;;;;3.05;2.33;;;19.70;27.00;;;;;;5031683;28;20170;-46
2022/11/06 12:31:31;;;;;;;4.78;3.00;;;20.30;28.20;;;;;;5031909;28;20173;-46
2022/11/06 12:33:58;;;;;;;3.13;2.83;;;21.40;27.00;;;;;;5033317;28;20177;-44
2022/11/06 12:36:26;;;;;;;3.20;2.90;;;22.50;23.50;;;;;;5035591;28;20189;-46
2022/11/06 12:39:02;;;;;;;3.80;2.50;;;23.10;22.20;;;;;;5038826;28;20185;-45
2022/11/06 12:41:32;;;;;;;3.80;2.58;;;23.10;20.70;;;;;;5039156;28;20188;-44
2022/11/06 12:43:58;;;;;;;5.13;4.57;;;23.70;21.20;;;;;;5039416;28;20182;-47
2022/11/06 12:46:52;;;;;;;4.75;4.25;;;24.20;20.30;;;;;;5039137;28;20197;-45
2022/11/06 12:49:47;;;;;;;3.13;2.30;;;24.60;19.90;;;;;;5039218;28;20174;-46
2022/11/06 12:52:42;;;;;;;4.43;3.60;;;24.80;18.10;;;;;;5038703;28;20281;-45
2022/11/06 12:55:21;;;;;;;4.73;2.80;;;25.00;19.70;;;;;;4998173;28;20417;-48
2022/11/06 12:58:45;;;;;;;5.90;2.17;;;25.00;19.10;;;;;;5034734;28;20424;-46
2022/11/06 13:01:32;;;;;;;4.40;3.10;;;25.40;20.00;;;;;;4993144;28;20397;-45
2022/11/06 13:04:22;;;;;;;4.67;2.70;;;25.30;18.40;;;;;;5034989;28;20400;-48
2022/11/06 13:07:25;;;;;;;4.47;3.37;;;24.70;18.50;;;;;;5034253;28;20649;-46
2022/11/06 13:10:06;;;;;;;5.53;4.80;;;23.70;19.70;;;;;;5034739;28;20392;-44
2022/11/06 13:12:50;;;;;;;3.85;3.55;;;22.80;20.30;;;;;;5034692;28;20416;-44
2022/11/06 13:15:34;;;;;;;4.83;4.30;;;22.10;21.70;;;;;;5034580;28;20790;-44
2022/11/06 13:18:19;;;;;;;4.50;3.80;;;21.70;22.50;;;;;;5034465;28;20408;-45
2022/11/06 13:20:48;;;;;;;4.95;3.78;;;21.60;23.00;;;;;;5034541;28;20189;-46
2022/11/06 13:23:24;;;;;;;20.30;17.10;;;21.60;23.00;;;;;;5034371;28;20209;-45
2022/11/06 13:26:13;;;;;;;11.95;8.32;;;21.10;22.70;;;;;;5033639;28;20257;-46
2022/11/06 13:28:48;;;;;;;3.95;3.50;;;20.80;23.50;;;;;;5034375;28;20170;-46